Flight Track Log - Related Links

Times and Time Zones

All times are in EDT time to prevent confusion due to time zone crossing. See the ASQ5203 flight status page for this flight to view local times or setup timezone preferences in your user account.

Time Position Orientation Groundspeed Altitude Reporting Facility
EDT Latitude Longitude Course Direction KTS MPH feet Rate Location/Type
Tue 04:03:16 PM 42.2050 -83.3528 173° South 140 161 1,200  Level Cleveland Center
Tue 04:04:48 PM 42.1306 -83.3397 173° South 223 257 3,700 1,636 Climbing Cleveland Center
Tue 04:05:17 PM 42.1150 -83.3161 132° Southeast 218 251 4,500 2,111 Climbing Cleveland Center
Tue 04:05:42 PM 42.0894 -83.2775 132° Southeast 269 310 5,600 2,129 Climbing Cleveland Center
Tue 04:06:19 PM 42.0811 -83.2203 101° East 281 323 6,700 2,323 Climbing Cleveland Center
Tue 04:06:44 PM 42.0794 -83.1608 92° East 302 348 8,000 2,857 Climbing Cleveland Center
Tue 04:07:22 PM 42.0944 -83.0933 73° East 307 353 9,700 2,100 Climbing Cleveland Center
Tue 04:08:24 PM 42.1172 -82.9764 75° East 323 372 11,500 1,887 Climbing Cleveland Center
Tue 04:09:26 PM 42.1442 -82.8508 74° East 343 395 13,600 1,839 Climbing Cleveland Center
Tue 04:10:28 PM 42.1708 -82.7189 75° East 365 420 15,300 1,790 Climbing Cleveland Center
Tue 04:11:30 PM 42.1975 -82.5822 75° East 372 428 17,300 1,742 Climbing Cleveland Center
Tue 04:12:32 PM 42.2231 -82.4417 76° East 384 442 18,900 1,597 Climbing Cleveland Center
Tue 04:13:34 PM 42.2122 -82.2603 95° East 404 465 20,600 1,452 Climbing Cleveland Center
Tue 04:14:36 PM 42.2011 -82.1119 96° East 416 479 21,900 1,258 Climbing Cleveland Center
Tue 04:15:38 PM 42.1897 -81.9481 95° East 430 495 23,200 1,161 Climbing Cleveland Center
Tue 04:16:40 PM 42.1778 -81.7792 95° East 442 509 24,300 1,152 Climbing Cleveland Center
Tue 04:17:43 PM 42.1628 -81.5750 96° East 461 531 25,600 1,104 Climbing Cleveland Center
Tue 04:18:45 PM 42.1494 -81.3978 96° East 466 536 26,600 1,016 Climbing Cleveland Center
Tue 04:19:47 PM 42.1358 -81.2183 96° East 472 543 27,700 1,065 Climbing Cleveland Center
Tue 04:20:49 PM 42.1125 -81.0392 100° East 478 550 28,800 1,065 Climbing Cleveland Center
Tue 04:21:51 PM 42.0247 -80.9017 131° Southeast 477 549 29,900 1,065 Climbing Cleveland Center
Tue 04:22:53 PM 41.9422 -80.7583 128° Southeast 486 559 31,000 1,113 Climbing Cleveland Center
Tue 04:23:55 PM 41.9164 -80.5817 101° East 479 551 32,200 1,210 Climbing Cleveland Center
Tue 04:24:57 PM 41.8908 -80.4028 101° East 480 552 33,500 1,210 Climbing Cleveland Center
Tue 04:25:59 PM 41.8600 -80.1972 101° East 476 548 34,700 726 Climbing Cleveland Center
Tue 04:27:01 PM 41.8344 -80.0228 101° East 473 544 35,000 144 Climbing Cleveland Center
Tue 04:28:04 PM 41.8111 -79.8481 100° East 474 545 35,000  Level Cleveland Center
Tue 04:29:06 PM 41.7839 -79.6756 102° East 471 542 35,000  Level Cleveland Center
Tue 04:30:08 PM 41.7586 -79.5181 102° East 468 539 35,000  Level Cleveland Center
Tue 04:31:10 PM 41.7278 -79.3128 101° East 468 539 35,000  Level Cleveland Center
Tue 04:32:12 PM 41.6992 -79.1389 102° East 469 540 35,000  Level Cleveland Center
Tue 04:33:14 PM 41.6733 -78.9692 101° East 469 540 35,000  Level Cleveland Center
Tue 04:34:16 PM 41.6492 -78.8058 101° East 464 534 35,000  Level Cleveland Center
Tue 04:35:18 PM 41.6217 -78.6367 102° East 464 534 35,000 -576 Level Cleveland Center
Tue 04:36:21 PM 41.5892 -78.4328 102° East 465 535 33,800 -1,104 Descending Cleveland Center
Tue 04:37:23 PM 41.5611 -78.2639 102° East 465 535 32,700 -1,065 Descending Cleveland Center
Tue 04:38:25 PM 41.5333 -78.0989 103° East 463 533 31,600 -823 Descending Cleveland Center
Tue 04:39:27 PM 41.5064 -77.9308 102° East 463 533 31,000 -290 Descending Cleveland Center
Tue 04:40:29 PM 41.4825 -77.7581 100° East 470 541 31,000  Level Cleveland Center
Tue 04:41:31 PM 41.4581 -77.5808 100° East 483 556 31,000  Level Cleveland Center
Tue 04:42:33 PM 41.4261 -77.3675 101° East 487 560 31,000  Level Cleveland Center
Tue 04:43:35 PM 41.3997 -77.1886 101° East 491 565 31,000  Level Cleveland Center
Tue 04:44:38 PM 41.3731 -77.0097 101° East 495 570 31,000 -576 Level Cleveland Center
Tue 04:45:40 PM 41.3461 -76.8317 101° East 495 570 29,800 -2,061 Descending Cleveland Center
Tue 04:46:49 PM 41.2958 -76.6225 108° East 490 564 26,500 -2,677 Descending New York Center
Tue 04:47:50 PM 41.2497 -76.4583 110° East 476 548 24,000 -2,500 Descending New York Center
Tue 04:48:49 PM 41.2092 -76.3061 109° East 457 526 21,500 -2,471 Descending New York Center
Tue 04:49:49 PM 41.1681 -76.1567 110° East 437 503 19,100 -1,983 Descending New York Center
Tue 04:50:50 PM 41.1381 -76.0331 108° East 402 463 17,500 -1,361 Descending New York Center
Tue 04:51:48 PM 41.1003 -75.9006 111° Southeast 394 453 16,400 -1,613 Descending New York Center
Tue 04:52:49 PM 41.0606 -75.7544 110° East 380 437 14,300 -1,672 Descending New York Center
Tue 04:53:50 PM 41.0264 -75.6256 109° East 375 432 13,000 -650 Descending New York Center
Tue 04:54:49 PM 40.9953 -75.5189 111° Southeast 340 391 13,000  Level New York Center
Tue 04:55:50 PM 40.9642 -75.4094 111° Southeast 316 364 13,000 -151 Level New York Center
Tue 04:56:48 PM 40.9353 -75.3003 109° East 316 364 12,700 -1,119 Descending New York Center
Tue 04:57:48 PM 40.9039 -75.1939 111° Southeast 316 364 10,800 -1,686 Descending New York Center
Tue 04:58:49 PM 40.8781 -75.0989 110° East 303 349 9,300 -1,672 Descending New York Center
Tue 04:59:50 PM 40.8658 -74.9803 98° East 293 337 7,400 -1,563 Descending New York Center
Tue 05:00:48 PM 40.8772 -74.8875 81° East 293 337 6,200 -712 Descending New York Center
Tue 05:01:48 PM 40.8958 -74.7733 78° East 293 337 6,000 -99 Descending New York Center
Tue 05:02:49 PM 40.9136 -74.6811 76° East 288 331 6,000  Level New York Center
Tue 05:03:48 PM 40.9317 -74.5697 78° East 288 331 6,000 -450 Level New York Center
Tue 05:04:49 PM 40.9450 -74.4769 79° East 283 326 5,100 -496 Descending New York Center
Tue 05:05:49 PM 40.9653 -74.3681 76° East 277 319 5,000 -238 Descending New York Center
Tue 05:06:55 PM 40.9667 -74.2500 89° East 279 321 4,600 -429 Descending New York TRACON
Tue 05:07:55 PM 40.9333 -74.1667 118° Southeast 259 298 4,100 -450 Descending New York TRACON
Tue 05:08:55 PM 40.9000 -74.1000 123° Southeast 202 232 3,700 -500 Descending New York TRACON
Tue 05:09:55 PM 40.8500 -74.0833 166° South 191 220 3,100 -700 Descending New York TRACON
Tue 05:10:55 PM 40.8000 -74.1000 194° South 185 213 2,300 -850 Descending New York TRACON
Tue 05:11:55 PM 40.7500 -74.1167 194° South 172 198 1,400 -810 Descending New York TRACON
Tue 05:13:01 PM 40.7167 -74.1500 217° Southwest 137 158 600 -727 Descending New York TRACON
Tue 05:15:00 PM 40.6925 -74.1687 180° South  Level Estimated
Tue 05:22:00 PM 40.6925 -74.1687 180° South  Level Estimated

Login

Don't have an account? Register now (free) for customized features, flight alerts, and more!